Airfield :
LOGIN :

Register | Disclaimer

   EN    FR    IT 

 










Legend :    VFR   Marginal VFR   IFR   Intensive IFR   Very Intensive IFR
Visi :
Ceiling :
>= 8 km
>= 3000ft
5 to 8 km
1000 to 3000 ft
1500m to 5 km
500 to 1000 ft
800 to 1500m
200 to 500 ft
< 800m
< 200 ft
Symbols :   Thunderstorms  Fog  Heavy snow  Heavy precipitations  Wind > 20 kt
SIGMETs :     Misc.  Thunderstorms  Icing  Turbulence  Mountain Waves  Volcanic Ashes






- Airport Elevation : 87 ft
- IATA code : FSC


LFKF - Figari

CURRENT METAR :
  • 252030Z AUTO 25005KT CAVOK 19/16 Q1011 NOSIG

EXPIRED METARs :
  • 252000Z AUTO 25005KT CAVOK 20/17 Q1011 NOSIG
  • 251930Z AUTO 26007KT CAVOK 21/16 Q1011 NOSIG
  • 251900Z AUTO 25008KT CAVOK 21/17 Q1011 NOSIG
  • 251830Z AUTO 23007KT CAVOK 21/17 Q1011 NOSIG
  • 251800Z AUTO 25006KT CAVOK 21/17 Q1011 NOSIG

TAF TAF LFKF
Valid from the 25 at 15:00 until the 26 at 15:00 UTC


251400Z 2515/2615 24012KT 9999 FEW030
TEMPO 2515/2518 BKN025
BECMG 2608/2610 28012KT
BECMG 2613/2615 27015G25KT



MET'MAP, your aeronautical weather chart ! - Copyright ORBIFLY December 2007 - Disclaimer

ORBIFLY MET'MAP TEAM :

Programming & Development : Alexandra Zaïnal
Original concept : Baudouin d'Aumeries
Technical & hardware support : Manuel Goepfert
Assistance : Marc-Olivier Méhu




SOURCES & CREDITS :

   NOAA